Остафьево

Карта отелей и гостиниц, располагающихся рядом с аэропортом Остафьево :

Остафьево
Москва
Москва 55° 30' 27.8388" N, 37° 30' 22.86" E
Код аэродрома ИКАО: 
UUMO
Код аэродрома RU: 
УУМО
Координаты: 
N55.50773° E037.50635°
Превышение над уровнем моря : 
172
Основная полоса: 
08/26
Курс магнитный: 
074,2/254,2
Длина основной ВПП: 
2050
Ширина основной ВПП: 
48
Покрытие основной ВПП: 
Твёрдое (железобетон)
Освещение ВПП: 
Постоянное
Тип: 
Аэродром
Класс аэродрома: 
Международный
Принадлежность: 
МО
Статус: 
Действующий
Сайт: 
ostafyevo-airport.ru
E-mail аэродрома: 
airport@gazavia.gazprom.ru
Страна: 
Россия
Регион: 
Москва
Город: 
Москва
Дополнительная информация: 
Совместного базирования (МО РФ, ООО Авиапредприятие "Газпром авиа", ООО "Шар инк ЛТК"). Позиционируется как международный бизнес-аэропорт. Нкр.=(150/400)м. ДПРМ: 625-"НВ/ПС". БПРМ: 305-"Н/П". Военный индекс: XUMO / ЬУМО. Старшим авиационным начальником аэродрома совместного базирования «Остафьево» является командир 7050-й гвардейской авиационной группы (в/ч 49324-3) из состава авиационной базы Северного флота морской авиации ВМФ России (г. Североморск).
Погода: 

Авиационная погода в Москве - Остафьево

Регион: 
Погода METAR: 
UUMO 201430Z 30007MPS 9999 SCT050 11/03 Q1018 R26/090060 NOSIG RMK QFE748/0997
Время наблюдения: 
2020-09-20T14:30:00Z
Температура C: 
11.0
Точка росы: 
3.0
Направление ветра: 
300
Скорость ветра (узлы): 
14
Метеорологическая видимость: 
6.21
Условия полета: 
VFR
Аэропорт подробнее: 

Найти трансфер

С помощью этой формы Вы можете найти трансфер из аэропорта Остафьево в город, аэропорт или вокзал:

Карта места

Javascript is required to view this map.

Погода в аэропортах:

Авиационная погода в Мурманске

Регион: 
Погода METAR: 
ULMM 201430Z 15004MPS 9999 -SHRA BKN034CB 03/03 Q0997 R13/290060 NOSIG RMK QFE741
Время наблюдения: 
2020-09-20T14:30:00Z
Температура C: 
3.0
Точка росы: 
3.0
Направление ветра: 
150
Скорость ветра (узлы): 
8
Метеорологическая видимость: 
6.21
Явления погоды: 
-SHRA
Условия полета: 
VFR
Аэропорт подробнее: 

Авиационная погода в Киркенесе

Регион: 
Погода METAR: 
ENKR 201420Z 19011KT 9999 -DZ BKN008 04/03 Q0994 RMK WIND 731FT 20017KT
Время наблюдения: 
2020-09-20T14:20:00Z
Температура C: 
4.0
Точка росы: 
3.0
Направление ветра: 
190
Скорость ветра (узлы): 
11
Метеорологическая видимость: 
6.21
Явления погоды: 
-DZ
Условия полета: 
IFR

Авиационная погода в Ботсфьорде

Регион: 
Погода METAR: 
ENBS 201420Z 22015KT 9999 -RA FEW017 BKN044 03/02 Q0991
Время наблюдения: 
2020-09-20T14:20:00Z
Температура C: 
3.0
Точка росы: 
2.0
Направление ветра: 
220
Скорость ветра (узлы): 
15
Метеорологическая видимость: 
6.21
Явления погоды: 
-RA
Условия полета: 
VFR

Авиационная погода в Берлевоге

Регион: 
Погода METAR: 
ENBV 181950Z 32014KT 9999 VCSH SCT016 BKN028 07/05 Q0993
Время наблюдения: 
2020-09-18T19:50:00Z
Температура C: 
7.0
Точка росы: 
5.0
Направление ветра: 
320
Скорость ветра (узлы): 
14
Метеорологическая видимость: 
6.21
Явления погоды: 
VCSH
Условия полета: 
MVFR